x

Smith Island, Wa (sisw1) Weather Station

2:00am - Tue 17th Jan 2017 All times are PST. -8 hours from GMT.

  • Wind
    8mph
  • Air Temp 46°f
  • Sea Pressure 1009.5mb
  • Smith Island, Wa
  • Smith Island, Wa

More Historic Weather Station data

Upgrade to MSW Pro to gain access to the past 30 days of data for over 8000 Wavebouys and Weather Stations around the globe.

Join Pro

Comparision Forecast

View Surf forecast
   
Tue 01/17 2:00am 8
mph
1009.5mb 46f
1:00am 17 23 mph 1009.6mb 48f
12:00am 28 31 mph 1009.5mb 49f
Mon 01/16 11:00pm 16 17 mph 1010.8mb 47f
10:00pm 24 26 mph 1011.7mb 46f
9:00pm 5
mph
1013.5mb 44f
8:00pm 17 20 mph 1013.2mb 44f
7:00pm 9 10 mph 1014.4mb 45f
6:00pm 6
mph
1014.4mb 45f
5:00pm 9 10 mph 1013.6mb 45f
4:00pm 10 11 mph 1014.9mb 47f
3:00pm 6 7 mph 1015.3mb 46f
2:00pm 10 13 mph 1016.2mb 46f
1:00pm 15 16 mph 1017.2mb 45f
12:00pm 10 13 mph 1019.1mb 44f
11:00am 20 21 mph 1019.7mb 41f
10:00am 14 15 mph 1020.7mb 40f
9:00am 14 17 mph 1021.1mb 39f
8:00am 9 10 mph 1021.9mb 39f
7:00am 11
mph
1021.9mb 39f
6:00am 5
mph
1023.1mb 39f
5:00am 10 11 mph 1022.9mb 39f
4:00am 10 11 mph 1023.1mb 39f
3:00am 6 7 mph 1024.3mb 39f
2:00am 5 6 mph 1024.6mb 39f
1:00am 9
mph
1024.7mb 39f
12:00am 5 6 mph 1025.1mb 40f
Sun 01/15 11:00pm 5 6 mph 1025.7mb 39f
10:00pm 6 7 mph 1026mb 40f
9:00pm 8 9 mph 1025.6mb 40f
8:00pm 8 9 mph 1025.7mb 39f
7:00pm 8
mph
1025.4mb 39f
6:00pm 8 9 mph 1025.4mb 39f
5:00pm 3
mph
1025.8mb 40f
4:00pm  -  mph 1026.1mb 40f
3:00pm 1 2 mph 1025.7mb 41f
2:00pm 3 5 mph 1025.5mb 40f
1:00pm 2 3 mph 1025.3mb 40f
12:00pm 2 3 mph 1025.9mb 39f
11:00am 5 6 mph 1026.6mb 38f
10:00am 6 8 mph 1026.3mb 38f
9:00am 7 8 mph 1025.6mb 37f
8:00am 6 7 mph 1025.5mb 35f
7:00am 7 8 mph 1025.5mb 36f
6:00am 6 7 mph 1025.9mb 36f
5:00am 6
mph
1025.9mb 36f
4:00am 3
mph
1026.2mb 37f
3:00am 3 5 mph 1026.4mb 38f
2:00am 2 3 mph 1026.2mb 38f
1:00am  -  1 mph 1025.7mb 38f
12:00am 3 5 mph 1025.8mb 38f
Sat 01/14 11:00pm 2 3 mph 1025.4mb 38f
10:00pm 2
mph
1025.4mb 38f
9:00pm 8 10 mph 1025.7mb 37f
8:00pm 10 11 mph 1025.4mb 37f
7:00pm 7
mph
1025.4mb 37f
6:00pm 6 7 mph 1025.3mb 37f
5:00pm 6 7 mph 1025.7mb 37f
4:00pm  -  1 mph 1026.6mb 38f
3:00pm 2 3 mph 1026.9mb 38f
2:00pm 2 3 mph 1027.1mb 38f
1:00pm 3 5 mph 1027.8mb 38f
12:00pm 5 6 mph 1028.4mb 37f
11:00am 6 7 mph 1029mb 36f
10:00am 5 6 mph 1029.5mb 35f
9:00am 5 6 mph 1029.7mb 33f
8:00am 10 11 mph 1029.6mb 33f
7:00am 7 8 mph 1029.9mb 33f
6:00am 5 6 mph 1030.5mb 34f
5:00am 3
mph
1030.5mb 34f
4:00am 8 9 mph 1030.7mb 33f
3:00am 7 9 mph 1030.7mb 35f
2:00am 6 7 mph 1030.8mb 35f
1:00am 8 9 mph 1031mb 35f
12:00am 6 7 mph 1030.7mb 35f
Fri 01/13 11:00pm 8
mph
1030.9mb 35f
10:00pm 6 7 mph 1031.1mb 35f
9:00pm 13 15 mph 1031.2mb 35f
8:00pm 7 8 mph 1031mb 36f
7:00pm 6 7 mph 1031.1mb 36f
6:00pm 5 6 mph 1031.2mb 35f
5:00pm 6 7 mph 1030.8mb 36f
4:00pm 2 3 mph 1031.2mb 36f
3:00pm 5 6 mph 1031.2mb 36f
2:00pm 3 5 mph 1030.7mb 36f
1:00pm 6 8 mph 1030.9mb 35f
12:00pm 5 7 mph 1031.3mb 35f